createdAt,value
2022-08-07T00:01:43.240Z,12.13
2022-08-07T00:03:55.170Z,12.05
2022-08-07T00:06:29.569Z,11.96
2022-08-07T00:09:16.180Z,12.00
2022-08-07T00:11:47.979Z,12.05
2022-08-07T00:14:25.462Z,12.04
2022-08-07T00:16:57.090Z,12.09
2022-08-07T00:19:26.174Z,12.09
2022-08-07T00:22:10.941Z,12.09
2022-08-07T00:24:38.937Z,12.10
2022-08-07T00:27:07.793Z,11.94
2022-08-07T00:29:37.620Z,11.85
2022-08-07T00:32:05.973Z,11.91
2022-08-07T00:34:33.737Z,11.86
2022-08-07T00:37:02.791Z,11.79
2022-08-07T00:39:32.329Z,11.76
2022-08-07T00:42:05.133Z,11.77
2022-08-07T00:44:33.140Z,11.77
2022-08-07T00:47:02.521Z,11.69
2022-08-07T00:50:18.980Z,11.67
2022-08-07T00:52:17.771Z,11.66
2022-08-07T00:54:47.150Z,11.61
2022-08-07T00:57:22.141Z,11.62
2022-08-07T00:59:49.514Z,11.55
2022-08-07T01:02:28.264Z,11.63
2022-08-07T01:04:58.366Z,11.59
2022-08-07T01:07:27.614Z,11.51
2022-08-07T01:10:06.619Z,11.60
2022-08-07T01:12:53.071Z,11.61
2022-08-07T01:15:20.856Z,11.45
2022-08-07T01:17:49.313Z,11.54
2022-08-07T01:20:17.748Z,11.40
2022-08-07T01:23:12.301Z,11.29
2022-08-07T01:25:54.398Z,11.38
2022-08-07T01:28:22.004Z,11.41
2022-08-07T01:30:51.230Z,11.37
2022-08-07T01:33:19.591Z,11.46
2022-08-07T01:35:53.398Z,11.38
2022-08-07T01:38:25.812Z,11.41
2022-08-07T01:40:59.679Z,11.32
2022-08-07T01:43:34.761Z,11.36
2022-08-07T01:46:08.384Z,11.36
2022-08-07T01:48:42.253Z,11.36
2022-08-07T01:52:00.999Z,11.36
2022-08-07T01:54:19.199Z,11.25
2022-08-07T01:57:03.288Z,11.36
2022-08-07T01:59:36.779Z,11.32
2022-08-07T02:03:12.204Z,11.27
2022-08-07T02:05:06.110Z,11.22
2022-08-07T02:07:49.848Z,11.19
2022-08-07T02:10:25.034Z,11.21
2022-08-07T02:12:53.823Z,11.17
2022-08-07T02:15:26.375Z,11.26
2022-08-07T02:17:57.563Z,11.17
2022-08-07T02:20:29.990Z,11.21
2022-08-07T02:23:01.868Z,11.18
2022-08-07T02:26:31.342Z,11.12
2022-08-07T02:28:25.409Z,11.07
2022-08-07T02:30:55.402Z,11.03
2022-08-07T02:33:25.263Z,10.97
2022-08-07T02:36:29.080Z,11.00
2022-08-07T02:38:58.768Z,11.05
2022-08-07T02:41:33.219Z,11.03
2022-08-07T02:44:02.233Z,10.94
2022-08-07T02:46:36.708Z,10.87
2022-08-07T02:49:04.246Z,10.85
2022-08-07T02:51:49.785Z,10.78
2022-08-07T02:54:22.115Z,10.81
2022-08-07T02:56:55.585Z,10.69
2022-08-07T02:59:27.550Z,10.64
2022-08-07T03:01:55.684Z,10.62
2022-08-07T03:04:25.700Z,10.56
2022-08-07T03:06:54.284Z,10.48
2022-08-07T03:09:43.668Z,10.42
2022-08-07T03:12:22.211Z,10.37
2022-08-07T03:14:52.138Z,10.31
2022-08-07T03:17:20.215Z,10.22
2022-08-07T03:19:54.671Z,10.18
2022-08-07T03:22:30.513Z,-147.88
2022-08-07T03:24:59.951Z,10.18
2022-08-07T03:27:30.580Z,10.14
2022-08-07T03:30:16.683Z,10.10
2022-08-07T03:32:58.788Z,10.07
2022-08-07T03:35:43.584Z,10.09
2022-08-07T03:38:16.515Z,10.16
2022-08-07T03:40:53.965Z,10.23
2022-08-07T03:43:33.057Z,10.22
2022-08-07T03:46:10.610Z,10.27
2022-08-07T03:49:01.967Z,10.24
2022-08-07T03:51:47.938Z,10.20
2022-08-07T03:54:36.485Z,10.23
2022-08-07T03:57:10.539Z,10.09
2022-08-07T04:00:01.621Z,10.02
2022-08-07T04:02:31.115Z,9.99
2022-08-07T04:04:58.758Z,10.05
2022-08-07T04:07:26.008Z,10.04
2022-08-07T04:10:04.117Z,10.11
2022-08-07T04:12:35.232Z,-147.88
2022-08-07T04:15:05.200Z,-147.88
2022-08-07T04:18:57.550Z,-147.88
2022-08-07T04:20:20.189Z,-147.88
2022-08-07T04:22:53.569Z,-147.88
2022-08-07T04:25:29.504Z,-147.88
2022-08-07T04:28:00.389Z,-147.88
2022-08-07T04:30:43.426Z,-147.88
2022-08-07T04:33:13.804Z,-147.88
2022-08-07T04:35:44.793Z,-147.88
2022-08-07T04:38:17.977Z,-147.88
2022-08-07T04:40:52.656Z,-147.88
2022-08-07T04:44:09.846Z,-147.88
2022-08-07T04:46:20.161Z,-147.88
2022-08-07T04:49:03.483Z,-147.88
2022-08-07T04:51:51.616Z,-147.88
2022-08-07T04:54:30.306Z,-147.88
2022-08-07T04:58:09.996Z,-147.88
2022-08-07T05:00:10.858Z,10.74
2022-08-07T05:02:53.198Z,10.91
2022-08-07T05:05:52.887Z,10.97
2022-08-07T05:08:18.940Z,11.02
2022-08-07T05:11:11.930Z,11.07
2022-08-07T05:14:52.507Z,11.07
2022-08-07T05:16:47.533Z,11.32
2022-08-07T05:19:32.620Z,11.45
2022-08-07T05:22:11.965Z,11.53
2022-08-07T05:24:40.621Z,11.63
2022-08-07T05:27:14.447Z,11.74
2022-08-07T05:29:59.806Z,11.89
2022-08-07T05:32:27.194Z,12.01
2022-08-07T05:34:57.117Z,11.99
2022-08-07T05:37:25.721Z,12.10
2022-08-07T05:40:13.960Z,12.32
2022-08-07T05:42:40.106Z,12.47
2022-08-07T05:45:14.602Z,12.68
2022-08-07T05:48:01.555Z,12.90
2022-08-07T05:50:32.240Z,13.11
2022-08-07T05:53:00.466Z,13.27
2022-08-07T05:56:02.325Z,13.35
2022-08-07T05:58:22.060Z,13.47
2022-08-07T06:01:06.054Z,13.60
2022-08-07T06:03:53.614Z,13.73
2022-08-07T06:06:29.858Z,-147.88
2022-08-07T06:09:04.743Z,13.99
2022-08-07T06:11:33.362Z,14.09
2022-08-07T06:14:11.953Z,14.05
2022-08-07T06:16:44.458Z,14.19
2022-08-07T06:19:57.574Z,14.09
2022-08-07T06:22:15.331Z,14.20
2022-08-07T06:24:53.496Z,14.33
2022-08-07T06:27:59.579Z,14.42
2022-08-07T06:30:24.241Z,14.48
2022-08-07T06:33:00.222Z,14.64
2022-08-07T06:35:39.176Z,14.80
2022-08-07T06:38:15.325Z,14.83
2022-08-07T06:40:50.171Z,14.73
2022-08-07T06:43:21.021Z,14.62
2022-08-07T06:45:49.075Z,14.89
2022-08-07T06:48:24.856Z,15.03
2022-08-07T06:50:54.419Z,15.08
2022-08-07T06:54:12.040Z,15.41
2022-08-07T06:56:15.446Z,15.34
2022-08-07T07:00:13.372Z,15.60
2022-08-07T07:01:43.641Z,-147.88
2022-08-07T07:04:28.329Z,-147.88
2022-08-07T07:07:02.000Z,16.03
2022-08-07T07:09:31.782Z,16.00
2022-08-07T07:12:19.670Z,16.16
2022-08-07T07:14:56.558Z,16.28
2022-08-07T07:17:38.916Z,16.30
2022-08-07T07:20:11.971Z,16.46
2022-08-07T07:24:08.992Z,16.73
2022-08-07T07:26:35.941Z,16.86
2022-08-07T07:28:29.784Z,17.18
2022-08-07T07:31:17.391Z,16.96
2022-08-07T07:33:56.901Z,17.15
2022-08-07T07:36:32.690Z,17.27
2022-08-07T07:39:02.449Z,17.28
2022-08-07T07:41:50.830Z,17.53
2022-08-07T07:44:26.637Z,17.74
2022-08-07T07:47:04.284Z,17.88
2022-08-07T07:50:33.455Z,17.72
2022-08-07T07:52:31.069Z,17.87
2022-08-07T07:54:59.697Z,18.28
2022-08-07T07:57:50.554Z,18.47
2022-08-07T08:00:28.880Z,18.49
2022-08-07T08:03:05.865Z,18.53
2022-08-07T08:05:50.955Z,18.42
2022-08-07T08:08:34.654Z,18.84
2022-08-07T08:11:08.588Z,18.97
2022-08-07T08:13:54.484Z,18.95
2022-08-07T08:16:30.041Z,19.34
2022-08-07T08:19:00.345Z,19.62
2022-08-07T08:22:00.665Z,19.84
2022-08-07T08:25:04.579Z,19.94
2022-08-07T08:27:56.475Z,20.17
2022-08-07T08:30:27.847Z,20.49
2022-08-07T08:32:57.444Z,20.67
2022-08-07T08:35:28.631Z,20.47
2022-08-07T08:38:03.221Z,20.89
2022-08-07T08:40:34.541Z,21.14
2022-08-07T08:43:10.942Z,21.33
2022-08-07T08:45:59.246Z,21.13
2022-08-07T08:48:36.167Z,21.49
2022-08-07T08:51:14.765Z,21.63
2022-08-07T08:54:00.886Z,21.87
2022-08-07T08:56:33.238Z,22.00
2022-08-07T08:59:13.737Z,22.29
2022-08-07T09:01:51.178Z,22.37
2022-08-07T09:04:30.377Z,22.44
2022-08-07T09:07:03.992Z,22.39
2022-08-07T09:09:56.663Z,22.69
2022-08-07T09:12:40.819Z,22.62
2022-08-07T09:16:25.842Z,22.78
2022-08-07T09:18:47.323Z,22.58
2022-08-07T09:22:23.132Z,22.34
2022-08-07T09:24:55.374Z,22.69
2022-08-07T09:27:38.320Z,22.88
2022-08-07T09:30:27.918Z,23.31
2022-08-07T09:33:16.566Z,23.35
2022-08-07T09:36:04.506Z,23.48
2022-08-07T09:38:50.115Z,23.59
2022-08-07T09:41:36.273Z,23.36
2022-08-07T09:44:32.815Z,23.64
2022-08-07T09:47:51.239Z,23.67
2022-08-07T09:50:18.620Z,23.67
2022-08-07T09:52:53.932Z,24.24
2022-08-07T09:55:29.775Z,24.52
2022-08-07T09:58:48.706Z,24.45
2022-08-07T10:01:51.303Z,23.61
2022-08-07T10:04:53.403Z,24.09
2022-08-07T10:07:52.586Z,24.15
2022-08-07T10:11:00.267Z,24.18
2022-08-07T10:14:00.768Z,24.63
2022-08-07T10:16:42.173Z,24.87
2022-08-07T10:19:41.901Z,24.74
2022-08-07T10:22:33.619Z,24.94
2022-08-07T10:25:13.787Z,25.22
2022-08-07T10:27:53.926Z,25.47
2022-08-07T10:30:33.440Z,25.08
2022-08-07T10:33:17.494Z,25.21
2022-08-07T10:36:05.436Z,25.49
2022-08-07T10:38:49.073Z,25.70
2022-08-07T10:41:46.508Z,25.98
2022-08-07T10:44:37.710Z,25.89
2022-08-07T10:47:19.805Z,25.62
2022-08-07T10:50:02.911Z,25.68
2022-08-07T10:52:42.638Z,25.39
2022-08-07T10:55:32.484Z,25.64
2022-08-07T10:58:32.091Z,25.81
2022-08-07T11:01:22.214Z,26.08
2022-08-07T11:04:23.334Z,25.58
2022-08-07T11:06:58.190Z,25.58
2022-08-07T11:10:09.470Z,25.22
2022-08-07T11:12:32.149Z,25.25
2022-08-07T11:15:04.342Z,26.12
2022-08-07T11:17:49.648Z,25.42
2022-08-07T11:20:24.364Z,25.66
2022-08-07T11:23:01.541Z,25.96
2022-08-07T11:25:42.467Z,26.27
2022-08-07T11:28:20.288Z,26.72
2022-08-07T11:30:55.722Z,25.95
2022-08-07T11:33:59.662Z,25.70
2022-08-07T11:36:37.620Z,26.15
2022-08-07T11:39:19.465Z,26.73
2022-08-07T11:42:01.795Z,26.41
2022-08-07T11:44:40.383Z,26.66
2022-08-07T11:47:38.627Z,-147.88
2022-08-07T11:50:44.717Z,-147.88
2022-08-07T11:53:43.356Z,26.66
2022-08-07T11:56:41.741Z,27.37
2022-08-07T12:00:10.822Z,-147.88
2022-08-07T12:02:30.907Z,-147.88
2022-08-07T12:05:15.237Z,27.34
2022-08-07T12:08:03.600Z,27.02
2022-08-07T12:10:41.706Z,27.46
2022-08-07T12:13:17.126Z,27.11
2022-08-07T12:16:06.041Z,27.60
2022-08-07T12:18:45.043Z,27.89
2022-08-07T12:21:55.667Z,27.59
2022-08-07T12:24:37.631Z,27.69
2022-08-07T12:27:13.255Z,27.38
2022-08-07T12:29:51.689Z,27.98
2022-08-07T12:32:22.630Z,27.83
2022-08-07T12:34:55.732Z,27.70
2022-08-07T12:37:28.382Z,27.92
2022-08-07T12:40:44.052Z,27.60
2022-08-07T12:43:09.806Z,28.42
2022-08-07T12:45:45.458Z,27.79
2022-08-07T12:48:41.505Z,28.55
2022-08-07T12:51:20.999Z,28.94
2022-08-07T12:54:03.370Z,28.89
2022-08-07T12:56:51.266Z,28.15
2022-08-07T12:59:33.269Z,28.21
2022-08-07T13:02:49.621Z,28.35
2022-08-07T13:06:02.734Z,27.87
2022-08-07T13:08:48.973Z,28.15
2022-08-07T13:12:02.699Z,27.64
2022-08-07T13:14:34.821Z,27.68
2022-08-07T13:17:10.032Z,28.18
2022-08-07T13:19:51.404Z,28.45
2022-08-07T13:22:31.146Z,28.02
2022-08-07T13:25:03.017Z,28.02
2022-08-07T13:28:12.458Z,28.48
2022-08-07T13:30:39.973Z,28.72
2022-08-07T13:34:32.034Z,28.52
2022-08-07T13:36:09.475Z,-147.88
2022-08-07T13:38:54.331Z,-147.88
2022-08-07T13:41:30.263Z,-147.88
2022-08-07T13:44:02.355Z,28.62
2022-08-07T13:46:41.820Z,28.51
2022-08-07T13:50:32.910Z,28.30
2022-08-07T13:52:23.016Z,28.54
2022-08-07T13:54:56.359Z,29.11
2022-08-07T13:57:37.686Z,28.88
2022-08-07T14:00:26.015Z,29.19
2022-08-07T14:02:56.618Z,29.63
2022-08-07T14:05:37.158Z,29.96
2022-08-07T14:08:07.167Z,29.77
2022-08-07T14:10:41.939Z,29.63
2022-08-07T14:13:14.226Z,29.73
2022-08-07T14:15:45.219Z,30.15
2022-08-07T14:18:29.905Z,29.42
2022-08-07T14:21:08.527Z,29.53
2022-08-07T14:24:00.473Z,29.32
2022-08-07T14:26:37.422Z,29.89
2022-08-07T14:30:02.821Z,29.68
2022-08-07T14:31:57.700Z,29.38
2022-08-07T14:34:30.959Z,29.66
2022-08-07T14:37:02.950Z,29.41
2022-08-07T14:40:17.892Z,29.72
2022-08-07T14:42:32.430Z,29.16
2022-08-07T14:45:21.855Z,29.64
2022-08-07T14:47:51.255Z,29.46
2022-08-07T14:50:28.821Z,30.18
2022-08-07T14:53:07.887Z,-147.88
2022-08-07T14:55:35.861Z,-147.88
2022-08-07T14:58:27.459Z,-147.88
2022-08-07T15:00:55.606Z,-147.88
2022-08-07T15:03:52.816Z,-147.88
2022-08-07T15:06:23.509Z,-147.88
2022-08-07T15:08:55.689Z,-147.88
2022-08-07T15:14:19.926Z,30.18
2022-08-07T15:22:51.697Z,29.54
2022-08-07T15:25:25.526Z,-147.88
2022-08-07T15:28:34.616Z,-147.88
2022-08-07T15:33:46.123Z,-147.88
2022-08-07T15:37:03.166Z,-147.88
2022-08-07T15:39:10.538Z,-147.88
2022-08-07T15:42:46.821Z,-147.88
2022-08-07T15:44:30.327Z,-147.88
2022-08-07T15:47:03.323Z,-147.88
2022-08-07T15:50:04.297Z,-147.88
2022-08-07T15:52:30.447Z,-147.88
2022-08-07T15:55:03.787Z,-147.88
2022-08-07T15:57:48.227Z,-147.88
2022-08-07T16:00:31.921Z,-147.88
2022-08-07T16:03:22.193Z,28.39
2022-08-07T16:05:56.520Z,28.80
2022-08-07T16:08:33.456Z,27.94
2022-08-07T16:11:26.292Z,27.91
2022-08-07T16:14:11.714Z,28.24
2022-08-07T16:16:57.114Z,28.46
2022-08-07T16:19:59.438Z,27.81
2022-08-07T16:22:54.441Z,27.31
2022-08-07T16:25:54.471Z,26.88
2022-08-07T16:30:08.382Z,26.26
2022-08-07T16:31:51.259Z,26.30
2022-08-07T16:34:32.962Z,26.29
2022-08-07T16:38:06.587Z,25.84
2022-08-07T16:41:01.885Z,25.72
2022-08-07T16:44:06.099Z,25.64
2022-08-07T16:47:15.754Z,25.62
2022-08-07T16:50:37.128Z,25.62
2022-08-07T16:54:01.977Z,25.47
2022-08-07T16:56:20.131Z,25.08
2022-08-07T16:59:14.340Z,25.01
2022-08-07T17:01:58.056Z,25.13
2022-08-07T17:04:35.053Z,25.20
2022-08-07T17:07:13.636Z,25.02
2022-08-07T17:10:07.228Z,24.94
2022-08-07T17:12:44.087Z,24.92
2022-08-07T17:15:23.463Z,24.69
2022-08-07T17:18:18.376Z,24.59
2022-08-07T17:20:46.822Z,24.50
2022-08-07T17:23:33.448Z,24.55
2022-08-07T17:26:23.214Z,24.51
2022-08-07T17:29:09.654Z,24.48
2022-08-07T17:32:06.230Z,24.51
2022-08-07T17:35:02.675Z,24.33
2022-08-07T17:38:06.615Z,24.31
2022-08-07T17:40:30.535Z,24.22
2022-08-07T17:43:03.974Z,24.14
2022-08-07T17:45:54.458Z,23.98
2022-08-07T17:48:30.911Z,23.85
2022-08-07T17:51:08.348Z,23.76
2022-08-07T17:54:01.202Z,23.52
2022-08-07T17:56:32.649Z,23.48
2022-08-07T17:59:10.458Z,23.51
2022-08-07T18:01:50.345Z,23.51
2022-08-07T18:04:42.095Z,23.33
2022-08-07T18:07:34.097Z,23.27
2022-08-07T18:10:09.844Z,23.18
2022-08-07T18:13:06.865Z,23.09
2022-08-07T18:15:53.475Z,22.97
2022-08-07T18:18:47.500Z,22.89
2022-08-07T18:21:38.269Z,22.87
2022-08-07T18:24:07.637Z,22.75
2022-08-07T18:26:56.930Z,22.66
2022-08-07T18:30:05.523Z,22.52
2022-08-07T18:32:38.132Z,22.39
2022-08-07T18:35:16.595Z,22.24
2022-08-07T18:38:58.723Z,22.17
2022-08-07T18:41:08.049Z,22.04
2022-08-07T18:43:49.576Z,21.92
2022-08-07T18:46:27.089Z,21.79
2022-08-07T18:50:31.818Z,21.69
2022-08-07T18:52:37.962Z,21.43
2022-08-07T18:55:40.858Z,21.14
2022-08-07T18:57:58.579Z,21.02
2022-08-07T19:00:42.456Z,20.93
2022-08-07T19:03:37.876Z,20.79
2022-08-07T19:06:11.814Z,20.62
2022-08-07T19:09:09.467Z,20.43
2022-08-07T19:12:05.577Z,20.31
2022-08-07T19:15:02.412Z,20.08
2022-08-07T19:18:02.401Z,19.94
2022-08-07T19:20:38.758Z,19.74
2022-08-07T19:23:59.081Z,19.43
2022-08-07T19:26:29.363Z,19.39
2022-08-07T19:31:02.072Z,19.33
2022-08-07T19:32:07.745Z,19.23
2022-08-07T19:34:47.923Z,19.13
2022-08-07T19:37:18.026Z,19.14
2022-08-07T19:40:01.891Z,19.01
2022-08-07T19:42:31.630Z,18.83
2022-08-07T19:46:05.716Z,18.70
2022-08-07T19:48:02.037Z,18.64
2022-08-07T19:50:41.201Z,18.60
2022-08-07T19:54:32.247Z,18.52
2022-08-07T19:56:02.036Z,18.50
2022-08-07T19:58:33.539Z,18.45
2022-08-07T20:01:03.213Z,18.37
2022-08-07T20:03:37.337Z,18.28
2022-08-07T20:06:15.621Z,18.19
2022-08-07T20:08:58.401Z,18.12
2022-08-07T20:12:00.973Z,18.07
2022-08-07T20:14:31.266Z,17.94
2022-08-07T20:17:03.596Z,17.84
2022-08-07T20:19:49.449Z,17.76
2022-08-07T20:22:29.279Z,17.69
2022-08-07T20:25:12.492Z,17.54
2022-08-07T20:27:54.156Z,17.45
2022-08-07T20:30:31.579Z,17.55
2022-08-07T20:33:01.692Z,17.48
2022-08-07T20:35:51.783Z,17.54
2022-08-07T20:38:22.608Z,17.46
2022-08-07T20:40:53.482Z,17.36
2022-08-07T20:43:26.707Z,17.21
2022-08-07T20:46:27.062Z,17.13
2022-08-07T20:48:58.136Z,17.06
2022-08-07T20:51:40.306Z,17.00
2022-08-07T20:54:12.288Z,16.94
2022-08-07T20:56:48.595Z,16.90
2022-08-07T21:00:04.861Z,16.78
2022-08-07T21:02:32.854Z,16.73
2022-08-07T21:05:04.482Z,16.69
2022-08-07T21:07:38.620Z,16.61
2022-08-07T21:10:11.631Z,16.63
2022-08-07T21:12:40.220Z,16.59
2022-08-07T21:15:18.549Z,16.58
2022-08-07T21:18:20.848Z,-147.88
2022-08-07T21:20:40.267Z,16.47
2022-08-07T21:23:21.310Z,16.47
2022-08-07T21:26:03.617Z,16.51
2022-08-07T21:28:48.870Z,16.46
2022-08-07T21:31:49.645Z,16.44
2022-08-07T21:34:21.787Z,16.34
2022-08-07T21:37:02.807Z,16.30
2022-08-07T21:39:46.505Z,16.25
2022-08-07T21:42:46.824Z,16.19
2022-08-07T21:46:03.433Z,16.12
2022-08-07T21:48:29.012Z,16.05
2022-08-07T21:51:19.615Z,15.99
2022-08-07T21:53:52.662Z,15.94
2022-08-07T21:56:35.987Z,15.87
2022-08-07T21:59:09.706Z,15.80
2022-08-07T22:02:10.528Z,15.73
2022-08-07T22:04:35.407Z,15.73
2022-08-07T22:07:09.106Z,15.76
2022-08-07T22:09:54.375Z,15.70
2022-08-07T22:12:27.349Z,15.63
2022-08-07T22:16:39.489Z,15.56
2022-08-07T22:17:57.782Z,15.47
2022-08-07T22:20:32.470Z,15.42
2022-08-07T22:23:18.670Z,15.46
2022-08-07T22:26:02.063Z,15.49
2022-08-07T22:28:41.623Z,15.47
2022-08-07T22:31:59.641Z,15.48
2022-08-07T22:34:18.667Z,15.49
2022-08-07T22:37:09.539Z,15.43
2022-08-07T22:39:52.858Z,15.39
2022-08-07T22:42:29.266Z,15.35
2022-08-07T22:45:03.646Z,15.25
2022-08-07T22:48:01.959Z,15.13
2022-08-07T22:50:55.672Z,15.08
2022-08-07T22:54:05.308Z,14.95
2022-08-07T22:56:30.138Z,14.86
2022-08-07T22:59:22.312Z,14.89
2022-08-07T23:02:01.653Z,14.85
2022-08-07T23:04:57.985Z,14.81
2022-08-07T23:07:48.243Z,14.74
2022-08-07T23:10:36.343Z,14.77
2022-08-07T23:13:48.735Z,14.81
2022-08-07T23:16:54.690Z,14.88
2022-08-07T23:19:51.616Z,14.78
2022-08-07T23:22:35.020Z,14.73
2022-08-07T23:25:17.999Z,14.67
2022-08-07T23:28:21.280Z,14.57
2022-08-07T23:31:11.330Z,14.51
2022-08-07T23:34:34.063Z,14.46
2022-08-07T23:37:20.246Z,14.43
2022-08-07T23:40:04.868Z,14.41
2022-08-07T23:42:49.830Z,14.57
2022-08-07T23:45:33.276Z,14.41
2022-08-07T23:48:44.723Z,14.34
2022-08-07T23:53:02.153Z,14.28
2022-08-07T23:54:19.603Z,14.23
2022-08-07T23:57:02.180Z,14.16
